Time;durP1;ratioP1;P1;durP2;ratioP2;P2;SDS_P1;SDS_P2;PMS_P1;PMS_P2;Temp;Humidity;BMP_temperature;BMP_pressure;BME280_temperature;BME280_humidity;BME280_pressure;Samples;Min_cycle;Max_cycle;Signal;HPM_P1;HPM_P2
2022/11/02 00:00:20;;;;;;;6.40;1.63;;;;;;;12.37;65.99;100339.75;5085550;28;20891;-62
2022/11/02 00:02:48;;;;;;;9.53;2.60;;;;;;;12.44;65.49;100342.69;5092919;28;20555;-62
2022/11/02 00:05:15;;;;;;;5.00;1.83;;;;;;;12.33;65.48;100319.63;5089308;28;20460;-61
2022/11/02 00:07:42;;;;;;;10.50;2.10;;;;;;;12.40;65.51;100327.91;5086257;28;20896;-62
2022/11/02 00:10:09;;;;;;;9.83;2.20;;;;;;;12.38;65.47;100317.34;5085139;28;20670;-62
2022/11/02 00:12:36;;;;;;;10.57;2.30;;;;;;;12.37;65.83;100310.28;5099764;28;20443;-62
2022/11/02 00:15:05;;;;;;;9.53;2.67;;;;;;;12.34;66.07;100317.78;5091523;28;20452;-62
2022/11/02 00:17:31;;;;;;;5.10;2.40;;;;;;;12.32;66.35;100309.88;5092147;28;20451;-62
2022/11/02 00:19:59;;;;;;;5.43;1.90;;;;;;;12.36;66.35;100313.09;5097594;28;20507;-62
2022/11/02 00:22:26;;;;;;;5.97;1.80;;;;;;;12.24;66.44;100313.31;5092657;28;20524;-62
2022/11/02 00:24:53;;;;;;;6.53;2.10;;;;;;;12.26;66.38;100305.13;5102130;28;20463;-62
2022/11/02 00:27:20;;;;;;;6.73;2.00;;;;;;;12.30;66.54;100289.59;5086887;28;20925;-62
2022/11/02 00:29:46;;;;;;;11.17;2.17;;;;;;;12.27;66.62;100301.44;5084174;28;20471;-62
2022/11/02 00:32:13;;;;;;;7.50;1.87;;;;;;;12.31;66.48;100302.84;5089731;28;20522;-62
2022/11/02 00:34:40;;;;;;;7.13;2.47;;;;;;;12.32;66.61;100292.97;5101034;28;20480;-63
2022/11/02 00:37:08;;;;;;;11.83;2.27;;;;;;;12.30;66.26;100273.50;5091570;28;20558;-62
2022/11/02 00:39:35;;;;;;;4.20;1.80;;;;;;;12.31;66.82;100284.09;5103674;28;20467;-62
2022/11/02 00:42:01;;;;;;;9.73;1.97;;;;;;;12.33;66.84;100290.13;5101961;28;20490;-62
2022/11/02 00:44:28;;;;;;;12.60;2.13;;;;;;;12.38;66.62;100292.38;5103707;28;20917;-62
2022/11/02 00:46:55;;;;;;;14.47;3.53;;;;;;;12.39;66.54;100292.22;5101844;28;21029;-62
2022/11/02 00:49:22;;;;;;;12.43;3.00;;;;;;;12.40;66.37;100283.16;5103753;28;20428;-61
2022/11/02 00:51:48;;;;;;;7.60;2.20;;;;;;;12.39;66.59;100283.31;5096252;28;20560;-61
2022/11/02 00:54:16;;;;;;;13.53;2.20;;;;;;;12.39;66.82;100283.31;5083439;28;20439;-61
2022/11/02 00:56:43;;;;;;;16.00;2.67;;;;;;;12.34;67.01;100286.47;5081417;28;20500;-61
2022/11/02 00:59:09;;;;;;;6.37;1.90;;;;;;;12.42;66.82;100291.91;5083372;28;20457;-62
2022/11/02 01:01:36;;;;;;;12.90;2.50;;;;;;;12.37;66.81;100282.63;5081881;28;20546;-61
2022/11/02 01:04:03;;;;;;;8.43;2.43;;;;;;;12.41;66.62;100276.81;5101124;28;20522;-61
2022/11/02 01:06:30;;;;;;;10.93;1.83;;;;;;;12.43;67.03;100285.56;5082948;28;20507;-61
2022/11/02 01:08:56;;;;;;;7.13;2.00;;;;;;;12.39;67.21;100268.09;5101216;28;20508;-61
2022/11/02 01:11:24;;;;;;;6.87;1.87;;;;;;;12.56;66.59;100265.56;5087593;28;20508;-61
2022/11/02 01:13:53;;;;;;;8.00;2.20;;;;;;;12.54;66.98;100272.91;5067401;28;20580;-61
2022/11/02 01:16:19;;;;;;;8.20;1.90;;;;;;;12.55;66.95;100262.03;5082471;28;20932;-62
2022/11/02 01:18:46;;;;;;;7.27;2.10;;;;;;;12.66;66.78;100265.50;5084756;28;20436;-61
2022/11/02 01:21:13;;;;;;;13.30;2.37;;;;;;;12.68;66.83;100258.97;5100479;28;20591;-61
2022/11/02 01:23:39;;;;;;;7.07;2.10;;;;;;;12.57;67.44;100259.22;5102199;28;20446;-61
2022/11/02 01:26:08;;;;;;;6.67;1.77;;;;;;;12.64;67.88;100276.38;5085056;28;20540;-61
2022/11/02 01:28:36;;;;;;;12.20;1.90;;;;;;;12.63;68.03;100263.94;5082726;28;20515;-62
2022/11/02 01:31:03;;;;;;;7.53;2.47;;;;;;;12.57;68.61;100257.38;5084571;28;21088;-61
2022/11/02 01:33:30;;;;;;;4.40;1.33;;;;;;;12.63;68.32;100262.09;5082489;28;20500;-61
2022/11/02 01:35:56;;;;;;;11.43;2.33;;;;;;;12.77;68.16;100262.56;5093591;28;20557;-62
2022/11/02 01:38:23;;;;;;;8.13;2.47;;;;;;;12.67;68.47;100256.44;5095445;28;20492;-61
2022/11/02 01:40:50;;;;;;;9.80;2.27;;;;;;;12.76;68.46;100274.31;5091169;28;20472;-61
2022/11/02 01:43:21;;;;;;;11.10;2.93;;;;;;;12.63;70.10;100272.00;5082311;28;20532;-61
2022/11/02 01:45:51;;;;;;;8.40;2.00;;;;;;;12.60;71.73;100262.44;5083280;28;20571;-61
2022/11/02 01:48:18;;;;;;;8.23;1.90;;;;;;;12.35;73.92;100261.31;5081793;28;20460;-61
2022/11/02 01:50:46;;;;;;;9.77;2.57;;;;;;;12.15;74.99;100271.34;5082193;28;20514;-61
2022/11/02 01:53:13;;;;;;;4.90;1.70;;;;;;;12.12;75.91;100265.44;5098732;28;20448;-61
2022/11/02 01:55:40;;;;;;;11.20;1.90;;;;;;;12.03;76.47;100257.31;5091205;28;20471;-61
2022/11/02 01:58:10;;;;;;;12.13;2.13;;;;;;;12.13;76.75;100267.94;5087272;28;20517;-61
2022/11/02 02:00:37;;;;;;;7.90;1.63;;;;;;;12.16;76.19;100269.50;5082889;28;20484;-61
2022/11/02 02:03:07;;;;;;;10.17;2.20;;;;;;;12.17;76.20;100268.50;5101881;28;20978;-61
2022/11/02 02:05:38;;;;;;;5.93;1.70;;;;;;;12.20;75.04;100257.47;5098169;28;20511;-61
2022/11/02 02:08:07;;;;;;;6.03;1.80;;;;;;;12.32;75.23;100261.63;5087958;28;20844;-62
2022/11/02 02:10:34;;;;;;;13.60;2.93;;;;;;;12.32;75.11;100258.94;5069732;28;20487;-60
2022/11/02 02:13:00;;;;;;;4.57;2.17;;;;;;;12.36;75.36;100260.34;5099360;28;20886;-62
2022/11/02 02:15:34;;;;;;;5.70;1.70;;;;;;;12.39;75.44;100257.38;5097779;28;20699;-62
2022/11/02 02:18:03;;;;;;;11.57;2.60;;;;;;;12.39;75.25;100257.38;5080911;28;20513;-62
2022/11/02 02:20:42;;;;;;;9.63;2.20;;;;;;;12.37;74.84;100251.28;5096422;28;20475;-62
2022/11/02 02:23:22;;;;;;;5.33;1.63;;;;;;;12.38;74.72;100250.31;5083737;28;20500;-63
2022/11/02 02:26:15;;;;;;;13.47;2.10;;;;;;;12.38;74.53;100244.09;5079636;28;20495;-62
2022/11/02 02:28:47;;;;;;;6.00;1.97;;;;;;;12.35;74.96;100241.72;5084324;28;20444;-63
2022/11/02 02:31:17;;;;;;;4.80;1.73;;;;;;;12.31;75.12;100245.69;5082030;28;20480;-61
2022/11/02 02:33:48;;;;;;;8.80;2.30;;;;;;;12.34;75.02;100238.22;5082670;28;20472;-61
2022/11/02 02:36:21;;;;;;;12.90;2.50;;;;;;;12.37;75.52;100232.53;5081554;28;20469;-61
2022/11/02 02:38:49;;;;;;;6.00;1.77;;;;;;;12.43;75.22;100236.44;5085261;28;20849;-61
2022/11/02 02:41:20;;;;;;;7.90;1.33;;;;;;;12.30;75.89;100234.13;5086049;28;20535;-61
2022/11/02 02:43:50;;;;;;;10.07;2.43;;;;;;;12.38;76.08;100239.59;5100702;28;20463;-61
2022/11/02 02:46:20;;;;;;;7.00;2.20;;;;;;;12.19;76.79;100247.75;5094954;28;20510;-61
2022/11/02 02:48:48;;;;;;;12.50;3.00;;;;;;;12.23;76.82;100247.28;5101034;28;20455;-61
2022/11/02 02:51:19;;;;;;;6.80;2.20;;;;;;;12.16;77.31;100240.84;5098777;28;20479;-61
2022/11/02 02:53:48;;;;;;;11.40;2.07;;;;;;;12.20;77.18;100246.75;5095259;28;20540;-61
2022/11/02 02:56:16;;;;;;;11.67;2.63;;;;;;;12.21;77.75;100249.28;5099872;28;20499;-61
2022/11/02 02:58:47;;;;;;;11.67;3.10;;;;;;;12.15;77.66;100243.69;5082088;28;20444;-61
2022/11/02 03:01:15;;;;;;;6.23;1.80;;;;;;;12.14;77.71;100242.84;5093690;28;20503;-61
2022/11/02 03:03:43;;;;;;;10.87;3.00;;;;;;;12.05;77.96;100228.53;5099421;28;20435;-61
2022/11/02 03:06:15;;;;;;;6.07;1.90;;;;;;;12.13;77.83;100234.97;5098609;28;20484;-62
2022/11/02 03:08:48;;;;;;;9.80;1.90;;;;;;;12.16;77.63;100248.06;5100259;28;20447;-61
2022/11/02 03:11:17;;;;;;;9.80;2.20;;;;;;;12.16;77.28;100240.03;5081559;28;20905;-61
2022/11/02 03:13:56;;;;;;;5.23;1.47;;;;;;;12.19;77.18;100240.56;5099092;28;20444;-61
2022/11/02 03:16:33;;;;;;;8.90;1.70;;;;;;;12.20;76.79;100244.06;5084662;28;20499;-61
2022/11/02 03:19:06;;;;;;;18.47;2.80;;;;;;;12.11;77.27;100239.63;5082069;28;20773;-61
2022/11/02 03:21:39;;;;;;;9.97;2.10;;;;;;;12.17;77.08;100239.00;5082795;28;20480;-61
2022/11/02 03:24:10;;;;;;;12.20;2.63;;;;;;;12.15;76.99;100241.00;5100007;28;20595;-61
2022/11/02 03:26:42;;;;;;;8.97;2.20;;;;;;;12.10;76.74;100230.75;5091973;28;20515;-61
2022/11/02 03:29:11;;;;;;;6.63;2.60;;;;;;;12.05;76.82;100233.03;5087094;28;20787;-61
2022/11/02 03:31:42;;;;;;;4.53;2.00;;;;;;;12.06;76.77;100234.72;5099451;28;20590;-61
2022/11/02 03:34:17;;;;;;;8.63;1.93;;;;;;;12.06;76.69;100232.03;5085620;28;20648;-61
2022/11/02 03:36:46;;;;;;;7.10;2.30;;;;;;;12.01;76.51;100226.28;5093340;28;20570;-60
2022/11/02 03:39:16;;;;;;;7.40;1.60;;;;;;;12.03;76.33;100235.88;5081002;28;20472;-61
2022/11/02 03:41:44;;;;;;;14.10;2.77;;;;;;;12.01;76.18;100231.63;5096199;28;20557;-61
2022/11/02 03:44:14;;;;;;;7.60;2.40;;;;;;;12.05;75.71;100238.41;5089702;28;20444;-61
2022/11/02 03:46:43;;;;;;;16.97;3.30;;;;;;;12.02;75.92;100244.06;5079640;28;20476;-62
2022/11/02 03:49:12;;;;;;;10.70;2.60;;;;;;;12.13;75.27;100251.03;5094738;28;20443;-61
2022/11/02 03:51:42;;;;;;;7.80;1.83;;;;;;;12.13;75.23;100245.69;5089420;28;20551;-62
2022/11/02 03:54:11;;;;;;;9.60;1.60;;;;;;;12.09;75.55;100252.34;5089534;28;20491;-62
2022/11/02 03:56:40;;;;;;;6.60;2.70;;;;;;;12.08;75.13;100259.50;5084154;28;20921;-62
2022/11/02 03:59:08;;;;;;;8.53;1.90;;;;;;;12.06;75.13;100261.50;5100231;28;20439;-61
2022/11/02 04:01:37;;;;;;;8.47;2.13;;;;;;;12.05;75.42;100268.72;5101770;28;20485;-61
2022/11/02 04:04:05;;;;;;;8.77;2.10;;;;;;;12.08;74.85;100267.56;5064707;28;20437;-62
2022/11/02 04:06:32;;;;;;;6.20;2.00;;;;;;;12.13;74.79;100270.63;5083178;28;20484;-61
2022/11/02 04:08:59;;;;;;;6.63;2.57;;;;;;;12.13;74.36;100277.84;5094715;28;20516;-61
2022/11/02 04:19:26;;;;;;;8.10;2.40;;;;;;;12.17;74.37;100282.75;5082636;28;20482;-61
2022/11/02 04:19:42;;;;;;;10.83;2.50;;;;;;;12.15;74.18;100279.38;5090656;28;20450;-61
2022/11/02 04:27:36;;;;;;;11.43;2.00;;;;;;;12.05;74.72;100286.63;5080313;28;20475;-61
2022/11/02 04:30:04;;;;;;;9.60;2.90;;;;;;;12.00;74.80;100294.28;5091465;28;20439;-61
2022/11/02 04:35:16;;;;;;;7.13;2.33;;;;;;;12.18;74.04;100287.09;5099187;28;20459;-61
2022/11/02 04:40:27;;;;;;;12.33;2.40;;;;;;;12.26;73.98;100310.50;5082802;28;20483;-62
2022/11/02 04:42:54;;;;;;;5.77;1.90;;;;;;;12.28;73.79;100305.00;5085055;28;20504;-62
2022/11/02 04:45:21;;;;;;;9.60;1.90;;;;;;;12.30;74.17;100311.03;5082924;28;20444;-61
2022/11/02 04:47:47;;;;;;;9.73;2.50;;;;;;;12.40;73.95;100307.28;5086423;28;20451;-62
2022/11/02 04:50:15;;;;;;;7.20;2.43;;;;;;;12.35;74.48;100303.38;5102932;28;20462;-61
2022/11/02 04:52:42;;;;;;;8.50;2.03;;;;;;;12.33;74.41;100311.56;5102746;28;20491;-61
2022/11/02 04:55:09;;;;;;;5.43;2.40;;;;;;;12.26;74.24;100306.97;5095545;28;20480;-61
2022/11/02 04:57:36;;;;;;;12.70;2.63;;;;;;;12.19;74.48;100312.09;5089280;28;20458;-61
2022/11/02 05:00:06;;;;;;;6.13;2.20;;;;;;;12.12;74.54;100302.97;5087120;28;20475;-62
2022/11/02 05:02:32;;;;;;;8.53;2.67;;;;;;;12.10;74.82;100310.28;5091966;28;20482;-63
2022/11/02 05:04:59;;;;;;;11.57;2.20;;;;;;;12.12;74.83;100305.66;5094211;28;20460;-62
2022/11/02 05:07:27;;;;;;;6.83;1.83;;;;;;;12.10;75.03;100305.78;5082859;28;20472;-62
2022/11/02 05:09:53;;;;;;;8.50;2.60;;;;;;;12.09;74.65;100303.25;5083203;28;20870;-62
2022/11/02 05:12:20;;;;;;;6.80;1.90;;;;;;;12.08;74.89;100315.78;5081123;28;20504;-62
2022/11/02 05:14:47;;;;;;;7.07;2.00;;;;;;;12.12;74.61;100308.31;5083136;28;20573;-62
2022/11/02 05:17:15;;;;;;;6.93;2.50;;;;;;;12.11;74.60;100306.63;5095872;28;20507;-62
2022/11/02 05:19:41;;;;;;;5.90;2.13;;;;;;;12.10;74.63;100300.44;5103283;28;20434;-62
2022/11/02 05:22:08;;;;;;;11.23;2.40;;;;;;;12.15;74.20;100308.00;5086378;28;20548;-62
2022/11/02 05:24:36;;;;;;;9.97;2.47;;;;;;;12.19;74.01;100293.34;5086622;28;20491;-63
2022/11/02 05:27:03;;;;;;;9.27;2.67;;;;;;;12.18;73.95;100302.34;5076818;28;20480;-62
2022/11/02 05:29:29;;;;;;;13.23;2.63;;;;;;;12.16;73.80;100301.66;5091470;28;20451;-68
2022/11/02 05:31:57;;;;;;;7.70;2.30;;;;;;;12.26;73.54;100307.81;5079313;28;20511;-79
2022/11/02 05:34:23;;;;;;;11.00;4.00;;;;;;;12.36;72.94;100308.59;5078788;28;20878;-69
2022/11/02 05:36:50;;;;;;;8.47;2.40;;;;;;;12.33;73.09;100310.75;5081113;28;20539;-69
2022/11/02 05:39:16;;;;;;;8.60;3.20;;;;;;;12.35;72.58;100300.72;5080569;28;20488;-69
2022/11/02 05:41:44;;;;;;;6.80;2.60;;;;;;;12.44;72.64;100307.84;5086731;28;20517;-69
2022/11/02 05:44:11;;;;;;;6.57;1.93;;;;;;;12.38;72.29;100308.47;5092970;28;20482;-69
2022/11/02 05:46:38;;;;;;;5.87;2.37;;;;;;;12.57;71.65;100316.38;5100869;28;20499;-69
2022/11/02 05:49:05;;;;;;;9.03;2.30;;;;;;;12.51;71.92;100314.28;5081653;28;20475;-69
2022/11/02 05:51:31;;;;;;;7.67;2.13;;;;;;;12.53;71.48;100316.81;5080455;28;20468;-69
2022/11/02 05:53:58;;;;;;;5.40;2.23;;;;;;;12.58;71.23;100315.34;5097253;28;20507;-69
2022/11/02 05:56:24;;;;;;;6.30;2.20;;;;;;;12.61;71.43;100322.25;5088880;28;20514;-69
2022/11/02 05:58:54;;;;;;;7.07;2.03;;;;;;;12.58;71.37;100323.41;5084872;28;20478;-69
2022/11/02 06:01:20;;;;;;;6.67;1.83;;;;;;;12.62;71.25;100330.16;5080180;28;20519;-69
2022/11/02 06:03:47;;;;;;;11.03;2.50;;;;;;;12.58;71.53;100330.59;5081605;28;20459;-69
2022/11/02 06:06:13;;;;;;;8.70;2.13;;;;;;;12.71;71.11;100341.81;5083712;28;20496;-69
2022/11/02 06:08:40;;;;;;;11.93;2.27;;;;;;;12.52;71.85;100331.22;5101227;28;20440;-69
2022/11/02 06:11:08;;;;;;;3.53;2.27;;;;;;;12.54;71.56;100340.78;5089994;28;20783;-63
2022/11/02 06:13:35;;;;;;;8.80;2.33;;;;;;;12.52;71.53;100331.22;5100478;28;20471;-63
2022/11/02 06:16:04;;;;;;;19.73;2.60;;;;;;;12.44;72.14;100343.53;5079976;28;20495;-66
2022/11/02 06:18:31;;;;;;;11.20;2.47;;;;;;;12.35;72.37;100336.41;5083220;28;20493;-67
2022/11/02 06:20:58;;;;;;;5.47;1.80;;;;;;;12.36;72.52;100340.78;5083051;28;20480;-67
2022/11/02 06:23:25;;;;;;;5.43;2.80;;;;;;;12.21;73.16;100344.94;5075381;28;20588;-67
2022/11/02 06:25:52;;;;;;;8.53;2.77;;;;;;;12.29;72.99;100357.59;5079837;28;20476;-67
2022/11/02 06:28:19;;;;;;;5.77;2.10;;;;;;;12.35;72.78;100357.84;5082324;28;20460;-66
2022/11/02 06:30:45;;;;;;;8.10;2.10;;;;;;;12.26;72.59;100341.84;5087853;28;20464;-67
2022/11/02 06:33:13;;;;;;;8.97;2.70;;;;;;;12.33;72.59;100359.84;5082064;28;20496;-67
2022/11/02 06:35:40;;;;;;;6.80;1.87;;;;;;;12.43;71.73;100367.84;5080206;28;20488;-67
2022/11/02 06:38:07;;;;;;;5.57;1.67;;;;;;;12.35;71.82;100371.25;5079626;28;20521;-67
2022/11/02 06:40:33;;;;;;;9.93;3.13;;;;;;;12.39;71.84;100371.78;5080284;28;20463;-67
2022/11/02 06:43:00;;;;;;;8.30;2.40;;;;;;;12.47;71.28;100365.69;5094750;28;20845;-67
2022/11/02 06:45:26;;;;;;;7.33;2.00;;;;;;;12.56;70.69;100386.25;5099872;28;20497;-67
2022/11/02 06:47:54;;;;;;;6.30;2.20;;;;;;;12.59;70.40;100375.22;5099280;28;20447;-67
2022/11/02 06:50:23;;;;;;;5.63;2.00;;;;;;;12.60;70.60;100376.88;5088742;28;21078;-68
2022/11/02 06:52:50;;;;;;;6.00;1.83;;;;;;;12.58;70.54;100384.25;5078974;28;20480;-67
2022/11/02 06:55:18;;;;;;;8.30;2.30;;;;;;;12.72;70.03;100391.78;5080312;28;20462;-67
2022/11/02 06:57:45;;;;;;;11.03;2.17;;;;;;;12.58;70.47;100392.28;5078784;28;20496;-67
2022/11/02 07:00:13;;;;;;;10.90;2.37;;;;;;;12.68;69.58;100387.72;5080114;28;20492;-69
2022/11/02 07:02:40;;;;;;;8.43;3.00;;;;;;;12.81;69.46;100411.47;5081900;28;20531;-67
2022/11/02 07:05:08;;;;;;;10.37;2.17;;;;;;;12.66;69.42;100404.97;5086652;28;20494;-67
2022/11/02 07:07:36;;;;;;;10.30;2.10;;;;;;;12.76;69.06;100409.28;5099862;28;20440;-73
2022/11/02 07:10:03;;;;;;;8.47;2.40;;;;;;;12.85;68.80;100415.56;5090974;28;20444;-72
2022/11/02 07:12:32;;;;;;;5.50;2.10;;;;;;;12.75;68.75;100410.25;5091559;28;20480;-72
2022/11/02 07:14:58;;;;;;;6.90;2.20;;;;;;;12.78;68.54;100418.00;5079518;28;21011;-72
2022/11/02 07:17:25;;;;;;;4.73;2.10;;;;;;;12.79;68.40;100424.22;5086660;28;21034;-73
2022/11/02 07:19:51;;;;;;;5.93;2.13;;;;;;;12.91;68.34;100428.38;5100156;28;20458;-72
2022/11/02 07:22:18;;;;;;;6.63;2.40;;;;;;;12.89;68.07;100425.00;5086235;28;20476;-73
2022/11/02 07:24:46;;;;;;;8.23;1.60;;;;;;;12.97;67.82;100440.34;5082672;28;20493;-70
2022/11/02 07:27:13;;;;;;;7.73;1.93;;;;;;;12.92;67.89;100435.44;5099008;28;20672;-71
2022/11/02 07:29:40;;;;;;;4.40;1.57;;;;;;;12.96;67.75;100439.50;5102858;28;20930;-73
2022/11/02 07:32:07;;;;;;;7.27;2.30;;;;;;;12.84;67.72;100429.97;5104073;28;20503;-72
2022/11/02 07:34:34;;;;;;;7.37;2.23;;;;;;;12.76;67.26;100432.59;5103729;28;20465;-75
2022/11/02 07:37:01;;;;;;;5.40;1.90;;;;;;;12.96;67.10;100439.50;5086411;28;20486;-72
2022/11/02 07:39:27;;;;;;;10.07;1.83;;;;;;;13.01;66.84;100455.16;5083791;28;20476;-72
2022/11/02 07:41:55;;;;;;;8.07;2.17;;;;;;;13.21;66.12;100455.88;5082562;28;20491;-72
2022/11/02 07:44:22;;;;;;;5.37;2.17;;;;;;;13.16;65.92;100453.63;5078985;28;20472;-72
2022/11/02 07:46:48;;;;;;;8.70;2.30;;;;;;;13.09;66.27;100447.19;5082731;28;20606;-71
2022/11/02 07:49:15;;;;;;;12.53;2.83;;;;;;;13.33;65.28;100461.88;5097334;28;20592;-72
2022/11/02 07:51:42;;;;;;;4.70;1.90;;;;;;;13.47;65.62;100472.09;5102428;28;20546;-71
2022/11/02 07:54:09;;;;;;;6.00;2.30;;;;;;;13.22;65.26;100472.81;5103104;28;20468;-70
2022/11/02 07:56:35;;;;;;;14.80;3.33;;;;;;;13.24;65.40;100479.72;5089957;28;20495;-71
2022/11/02 07:59:03;;;;;;;7.83;2.70;;;;;;;13.59;64.28;100488.78;5083360;28;20463;-71
2022/11/02 08:01:30;;;;;;;8.60;3.00;;;;;;;13.53;63.92;100479.53;5082935;28;20696;-72
2022/11/02 08:03:57;;;;;;;8.57;2.60;;;;;;;14.19;61.37;100479.19;5083613;28;20444;-71
2022/11/02 08:06:24;;;;;;;9.00;2.37;;;;;;;14.77;59.71;100483.03;5082340;28;20492;-72
2022/11/02 08:08:52;;;;;;;7.87;3.23;;;;;;;16.03;54.68;100482.91;5095659;28;20475;-71
2022/11/02 08:11:18;;;;;;;5.20;1.70;;;;;;;15.49;54.85;100478.00;5099071;28;20506;-74
2022/11/02 08:13:45;;;;;;;7.73;2.10;;;;;;;15.63;54.78;100501.56;5075782;28;21047;-72
2022/11/02 08:16:13;;;;;;;5.23;1.90;;;;;;;15.75;54.11;100507.53;5082374;28;20506;-71
2022/11/02 08:18:40;;;;;;;6.20;1.83;;;;;;;14.70;56.94;100509.75;5082454;28;20483;-72
2022/11/02 08:21:06;;;;;;;9.47;2.43;;;;;;;14.16;59.20;100496.47;5080787;28;21000;-71
2022/11/02 08:23:33;;;;;;;6.73;2.20;;;;;;;13.68;61.03;100516.56;5080823;28;20492;-72
2022/11/02 08:26:00;;;;;;;8.57;2.20;;;;;;;13.65;61.58;100512.38;5078031;28;20491;-73
2022/11/02 08:28:29;;;;;;;7.10;1.80;;;;;;;13.36;61.71;100521.47;5099452;28;20462;-72
2022/11/02 08:30:58;;;;;;;5.47;2.67;;;;;;;13.46;61.50;100507.16;5102141;28;20489;-73
2022/11/02 08:33:26;;;;;;;9.03;2.27;;;;;;;13.50;61.84;100519.28;5103085;28;20562;-73
2022/11/02 08:35:53;;;;;;;7.20;2.27;;;;;;;13.46;61.88;100512.53;5101086;28;20467;-71
2022/11/02 08:38:21;;;;;;;11.67;2.37;;;;;;;13.98;60.46;100522.56;5073813;28;20520;-69
2022/11/02 08:40:48;;;;;;;6.30;1.73;;;;;;;14.25;59.49;100533.19;5086934;28;20466;-73
2022/11/02 08:43:15;;;;;;;6.33;2.10;;;;;;;14.89;56.84;100524.78;5098006;28;20483;-70
2022/11/02 08:45:43;;;;;;;7.07;2.10;;;;;;;14.34;57.93;100533.22;5102312;28;20525;-72
2022/11/02 08:48:10;;;;;;;5.87;1.53;;;;;;;14.07;58.34;100543.97;5102032;28;21010;-72
2022/11/02 08:50:38;;;;;;;13.80;2.80;;;;;;;13.96;59.15;100541.53;5099691;28;20463;-69
2022/11/02 08:53:05;;;;;;;10.90;1.77;;;;;;;15.78;54.11;100541.41;5083045;28;20571;-71
2022/11/02 08:55:32;;;;;;;9.53;2.33;;;;;;;16.89;49.53;100537.19;5082000;28;20488;-70
2022/11/02 08:57:59;;;;;;;5.77;1.50;;;;;;;16.96;49.44;100542.72;5098196;28;20538;-73
2022/11/02 09:00:27;;;;;;;6.03;2.10;;;;;;;15.81;52.58;100550.00;5102119;28;20453;-72
2022/11/02 09:03:05;;;;;;;10.23;2.10;;;;;;;14.97;54.46;100546.38;5091277;28;20474;-72
2022/11/02 09:05:33;;;;;;;6.47;2.00;;;;;;;15.20;53.83;100551.16;5100981;28;20475;-72
2022/11/02 09:08:02;;;;;;;8.00;2.30;;;;;;;15.43;53.85;100560.34;5102564;28;20457;-72
2022/11/02 09:10:30;;;;;;;6.63;1.73;;;;;;;16.38;50.67;100545.56;5101957;28;20556;-72
2022/11/02 09:12:58;;;;;;;8.07;1.63;;;;;;;16.64;49.74;100549.91;5083553;28;20699;-73
2022/11/02 09:15:25;;;;;;;8.10;1.70;;;;;;;17.14;47.95;100548.72;5093200;28;20478;-72
2022/11/02 09:17:52;;;;;;;8.20;1.43;;;;;;;18.48;45.50;100557.41;5081369;28;20456;-71
2022/11/02 09:20:20;;;;;;;10.73;1.63;;;;;;;17.61;46.30;100564.00;5100627;28;20474;-72
2022/11/02 09:22:46;;;;;;;7.80;2.00;;;;;;;17.89;45.66;100560.78;5085502;28;20445;-73
2022/11/02 09:25:16;;;;;;;7.17;1.73;;;;;;;16.84;47.49;100567.44;5081452;28;20464;-73
2022/11/02 09:27:43;;;;;;;5.33;1.63;;;;;;;17.50;46.22;100564.44;5080535;28;20476;-73
2022/11/02 09:30:11;;;;;;;5.83;1.80;;;;;;;16.26;48.95;100584.72;5079554;28;20437;-72
2022/11/02 09:32:38;;;;;;;5.13;1.80;;;;;;;17.20;46.69;100579.59;5081012;28;20471;-71
2022/11/02 09:35:07;;;;;;;6.30;1.50;;;;;;;15.75;50.61;100577.59;5079616;28;21070;-73
2022/11/02 09:37:34;;;;;;;4.63;1.40;;;;;;;17.87;46.44;100595.31;5081197;28;20643;-72
2022/11/02 09:40:00;;;;;;;5.30;1.20;;;;;;;17.74;46.23;100587.75;5078081;28;20487;-72
2022/11/02 09:42:33;;;;;;;6.63;1.53;;;;;;;19.03;42.90;100605.94;5096506;28;20565;-73
2022/11/02 09:45:03;;;;;;;10.87;2.20;;;;;;;16.93;47.27;100598.78;5086367;28;20478;-72
2022/11/02 09:47:32;;;;;;;6.87;2.07;;;;;;;16.64;48.62;100614.69;5079662;28;20737;-73
2022/11/02 09:50:01;;;;;;;8.20;1.70;;;;;;;17.40;46.58;100617.88;5079895;28;20432;-72
2022/11/02 09:52:31;;;;;;;7.77;1.60;;;;;;;16.70;48.53;100608.59;5078621;28;20504;-73
2022/11/02 09:54:59;;;;;;;10.87;1.83;;;;;;;17.08;46.36;100596.22;5097825;28;20447;-72
2022/11/02 09:57:30;;;;;;;10.17;1.70;;;;;;;17.99;44.33;100606.56;5084436;28;20490;-72
2022/11/02 09:59:57;;;;;;;6.23;1.77;;;;;;;17.49;45.10;100606.81;5080501;28;20448;-71
2022/11/02 10:02:30;;;;;;;5.17;1.53;;;;;;;17.62;45.16;100627.03;5080207;28;20496;-72
2022/11/02 10:05:11;;;;;;;9.57;2.10;;;;;;;17.82;45.43;100625.56;5089953;28;20446;-72
2022/11/02 10:07:58;;;;;;;3.73;1.87;;;;;;;18.81;43.14;100641.00;5083038;28;20471;-73
2022/11/02 10:10:33;;;;;;;15.13;2.83;;;;;;;17.36;45.04;100628.19;5079291;28;20469;-73
2022/11/02 10:13:06;;;;;;;6.90;2.23;;;;;;;17.24;46.23;100635.00;5081648;28;20527;-73
2022/11/02 10:15:37;;;;;;;5.30;1.83;;;;;;;17.51;45.74;100628.25;5079563;28;20538;-73
2022/11/02 10:18:04;;;;;;;5.13;1.40;;;;;;;18.26;43.46;100626.78;5079447;28;20576;-73
2022/11/02 10:20:34;;;;;;;6.00;1.70;;;;;;;18.58;43.08;100641.91;5079323;28;20535;-72
2022/11/02 10:23:07;;;;;;;3.60;1.60;;;;;;;17.88;43.71;100645.69;5080761;28;20487;-73
2022/11/02 10:25:34;;;;;;;6.00;1.73;;;;;;;16.27;48.34;100659.25;5078795;28;20506;-70
2022/11/02 10:28:09;;;;;;;6.60;1.80;;;;;;;16.17;48.56;100676.41;5079478;28;20519;-71
2022/11/02 10:30:37;;;;;;;8.20;2.00;;;;;;;14.81;52.34;100670.97;5084713;28;20503;-72
2022/11/02 10:33:10;;;;;;;8.00;1.90;;;;;;;14.72;53.56;100654.91;5079365;28;20605;-64
2022/11/02 10:35:45;;;;;;;6.70;2.20;;;;;;;15.35;51.59;100680.72;5077787;28;20519;-64
2022/11/02 10:38:22;;;;;;;8.47;2.20;;;;;;;15.73;49.85;100676.63;5080575;28;20963;-65
2022/11/02 10:41:01;;;;;;;4.63;1.50;;;;;;;14.94;52.92;100681.31;5089264;28;20506;-63
2022/11/02 10:43:38;;;;;;;4.57;1.47;;;;;;;14.54;55.07;100685.38;5068080;28;20472;-65
2022/11/02 10:46:13;;;;;;;3.63;1.47;;;;;;;14.56;53.92;100679.84;5079459;28;20498;-65
2022/11/02 10:48:47;;;;;;;6.80;1.93;;;;;;;16.48;48.67;100669.53;5078876;28;20498;-64
2022/11/02 10:51:16;;;;;;;6.70;1.60;;;;;;;17.44;45.42;100673.25;5082190;28;20491;-64
2022/11/02 10:53:44;;;;;;;5.00;1.70;;;;;;;17.04;46.82;100694.81;5100079;28;20520;-64
2022/11/02 10:56:17;;;;;;;7.37;1.63;;;;;;;18.62;43.74;100691.13;5082732;28;20538;-65
2022/11/02 10:58:58;;;;;;;6.77;1.93;;;;;;;18.33;42.91;100684.63;5100224;28;20816;-66
2022/11/02 11:01:25;;;;;;;3.40;1.10;;;;;;;19.03;41.47;100688.06;5099391;28;20511;-66
2022/11/02 11:03:56;;;;;;;8.07;1.87;;;;;;;19.29;41.94;100687.63;5099286;28;20457;-66
2022/11/02 11:06:24;;;;;;;4.90;1.90;;;;;;;19.94;41.33;100690.53;5091957;28;21054;-67
2022/11/02 11:08:52;;;;;;;7.73;1.30;;;;;;;20.58;38.85;100697.03;5080849;28;20435;-66
2022/11/02 11:11:21;;;;;;;4.40;1.20;;;;;;;20.27;38.47;100704.47;5093825;28;20481;-65
2022/11/02 11:13:56;;;;;;;5.63;1.70;;;;;;;19.21;41.08;100703.97;5059842;28;20520;-65
2022/11/02 11:16:31;;;;;;;4.73;1.20;;;;;;;19.30;40.40;100702.84;5059015;28;20508;-65
2022/11/02 11:18:59;;;;;;;3.93;1.50;;;;;;;19.18;41.16;100715.16;5058546;28;20450;-65
2022/11/02 11:21:35;;;;;;;8.70;1.60;;;;;;;19.33;40.83;100728.75;5086157;28;20898;-66
2022/11/02 11:24:18;;;;;;;5.00;1.40;;;;;;;17.27;44.68;100730.06;5079893;28;21041;-66
2022/11/02 11:26:45;;;;;;;4.80;1.43;;;;;;;16.78;46.52;100735.47;5076855;28;20551;-65
2022/11/02 11:29:22;;;;;;;3.10;1.40;;;;;;;16.57;46.96;100736.81;5099920;28;20466;-66
2022/11/02 11:31:49;;;;;;;3.90;1.00;;;;;;;16.38;46.92;100737.16;5086302;28;20783;-65
2022/11/02 11:34:24;;;;;;;6.77;1.73;;;;;;;15.88;49.01;100749.66;5099336;28;20523;-65
2022/11/02 11:36:51;;;;;;;5.47;1.60;;;;;;;15.69;49.54;100742.66;5096452;28;20481;-65
2022/11/02 11:39:24;;;;;;;6.10;1.67;;;;;;;15.87;49.02;100739.06;5077765;28;20447;-66
2022/11/02 11:41:50;;;;;;;6.57;1.53;;;;;;;16.75;46.21;100719.63;5077985;28;20546;-64
2022/11/02 11:44:17;;;;;;;5.80;1.60;;;;;;;16.52;46.40;100735.66;5080179;28;20476;-65
2022/11/02 11:46:47;;;;;;;5.43;1.87;;;;;;;16.22;47.36;100737.97;5078842;28;20505;-65